Time;durP1;ratioP1;P1;durP2;ratioP2;P2;SDS_P1;SDS_P2;PMS_P1;PMS_P2;Temp;Humidity;BMP_temperature;BMP_pressure;BME280_temperature;BME280_humidity;BME280_pressure;Samples;Min_cycle;Max_cycle;Signal;HPM_P1;HPM_P2
2022/01/02 00:00:42;;;;;;;31.48;13.20;;;11.10;99.90;;;;;;5065159;28;20052;-71
2022/01/02 00:03:08;;;;;;;17.45;13.02;;;11.10;99.90;;;;;;5064073;28;20929;-71
2022/01/02 00:05:38;;;;;;;20.83;14.07;;;11.10;99.90;;;;;;5058960;28;20043;-71
2022/01/02 00:08:06;;;;;;;20.48;12.93;;;11.10;99.90;;;;;;5066504;28;20061;-71
2022/01/02 00:10:55;;;;;;;;;;;11.10;99.90;;;;;;5065744;28;20052;-71
2022/01/02 00:13:33;;;;;;;21.17;13.23;;;11.00;99.90;;;;;;5059081;28;19955;-71
2022/01/02 00:16:05;;;;;;;18.20;13.15;;;11.00;99.90;;;;;;5046162;28;20048;-71
2022/01/02 00:18:37;;;;;;;28.58;15.05;;;11.00;99.90;;;;;;5069267;28;20785;-71
2022/01/02 00:21:07;;;;;;;23.25;13.80;;;11.00;99.90;;;;;;5064568;28;20417;-71
2022/01/02 00:23:48;;;;;;;25.55;14.88;;;11.00;99.90;;;;;;5054500;28;20508;-71
2022/01/02 00:26:17;;;;;;;24.02;13.20;;;11.00;99.90;;;;;;5066015;28;20147;-71
2022/01/02 00:28:48;;;;;;;20.25;14.43;;;11.00;99.90;;;;;;5064157;28;20048;-71
2022/01/02 00:31:15;;;;;;;22.85;14.25;;;10.90;99.90;;;;;;5053898;28;20128;-71
2022/01/02 00:33:41;;;;;;;24.08;14.43;;;11.00;99.90;;;;;;5063608;28;20128;-71
2022/01/02 00:36:07;;;;;;;22.63;13.88;;;10.90;99.90;;;;;;5064332;28;20052;-71
2022/01/02 00:38:35;;;;;;;21.08;13.77;;;10.90;99.90;;;;;;5067892;28;20105;-71
2022/01/02 00:41:01;;;;;;;27.00;14.52;;;11.00;99.90;;;;;;5042159;28;20485;-72
2022/01/02 00:43:47;;;;;;;21.23;14.63;;;10.90;99.90;;;;;;5065403;28;20050;-71
2022/01/02 00:46:14;;;;;;;23.77;14.63;;;10.90;99.90;;;;;;5066191;28;20045;-72
2022/01/02 00:48:44;;;;;;;24.33;15.35;;;10.90;99.90;;;;;;5063742;28;20036;-71
2022/01/02 00:51:17;;;;;;;27.08;15.30;;;10.90;99.90;;;;;;5065714;28;20496;-71
2022/01/02 00:53:48;;;;;;;28.30;15.38;;;10.90;99.90;;;;;;5065851;28;20042;-71
2022/01/02 00:56:17;;;;;;;22.67;14.60;;;10.90;99.90;;;;;;5063269;28;20043;-71
2022/01/02 00:58:51;;;;;;;28.75;15.13;;;10.90;99.90;;;;;;5057083;28;20117;-71
2022/01/02 01:01:32;;;;;;;23.15;14.45;;;10.90;99.90;;;;;;5065067;28;20073;-71
2022/01/02 01:04:00;;;;;;;22.25;13.98;;;10.80;99.90;;;;;;5065769;28;20084;-71
2022/01/02 01:06:31;;;;;;;26.67;15.45;;;10.80;99.90;;;;;;5070165;28;20106;-71
2022/01/02 01:09:04;;;;;;;28.33;16.00;;;10.90;99.90;;;;;;5067469;28;20672;-71
2022/01/02 01:11:30;;;;;;;26.15;16.10;;;10.90;99.90;;;;;;5049649;28;20044;-71
2022/01/02 01:13:57;;;;;;;24.90;16.20;;;10.90;99.90;;;;;;5067383;28;20055;-71
2022/01/02 01:16:22;;;;;;;28.77;16.02;;;10.80;99.90;;;;;;5067109;28;20048;-71
2022/01/02 01:18:48;;;;;;;28.23;15.52;;;10.90;99.90;;;;;;5068472;28;20053;-71
2022/01/02 01:21:15;;;;;;;22.38;15.13;;;10.90;99.90;;;;;;5069958;28;20106;-72
2022/01/02 01:23:41;;;;;;;25.25;14.70;;;10.90;99.90;;;;;;5067562;28;20052;-71
2022/01/02 01:26:09;;;;;;;23.15;14.98;;;10.90;99.90;;;;;;5068612;28;20076;-71
2022/01/02 01:28:35;;;;;;;33.50;16.50;;;10.90;99.90;;;;;;5069376;28;20409;-71
2022/01/02 01:31:01;;;;;;;20.98;15.45;;;10.90;99.90;;;;;;5068134;28;20048;-71
2022/01/02 01:33:26;;;;;;;29.85;16.52;;;10.90;99.90;;;;;;5069934;28;20389;-71
2022/01/02 01:35:52;;;;;;;25.08;15.68;;;10.90;99.90;;;;;;5067132;28;20405;-71
2022/01/02 01:38:18;;;;;;;26.67;16.83;;;10.90;99.90;;;;;;5069058;28;20055;-71
2022/01/02 01:41:00;;;;;;;31.70;15.38;;;10.90;99.90;;;;;;5071394;28;20459;-71
2022/01/02 01:43:37;;;;;;;33.53;17.38;;;10.90;99.90;;;;;;5066877;28;20615;-71
2022/01/02 01:46:05;;;;;;;28.40;17.43;;;10.90;99.90;;;;;;5038916;28;20056;-71
2022/01/02 01:48:31;;;;;;;33.77;15.37;;;10.90;99.90;;;;;;5059623;28;20071;-71
2022/01/02 01:50:57;;;;;;;28.20;15.95;;;10.90;99.90;;;;;;5064987;28;20888;-71
2022/01/02 01:53:22;;;;;;;24.20;14.90;;;10.90;99.90;;;;;;5067746;28;20040;-71
2022/01/02 01:55:49;;;;;;;26.05;16.23;;;10.90;99.90;;;;;;5065222;28;20053;-71
2022/01/02 01:58:15;;;;;;;28.25;16.88;;;10.90;99.90;;;;;;5067343;28;20497;-71
2022/01/02 02:00:41;;;;;;;29.42;16.38;;;10.90;99.90;;;;;;5056219;28;20045;-71
2022/01/02 02:03:07;;;;;;;29.42;17.50;;;10.90;99.90;;;;;;5066284;28;20053;-71
2022/01/02 02:05:33;;;;;;;33.15;17.83;;;10.90;99.90;;;;;;5067649;28;20099;-71
2022/01/02 02:07:58;;;;;;;26.42;16.10;;;10.90;99.90;;;;;;5067453;28;20048;-71
2022/01/02 02:10:51;;;;;;;25.35;15.85;;;10.90;99.90;;;;;;5066855;28;20032;-71
2022/01/02 02:13:14;;;;;;;32.35;17.95;;;10.90;99.90;;;;;;5071724;28;20105;-71
2022/01/02 02:15:40;;;;;;;33.38;18.38;;;10.90;99.90;;;;;;5075706;28;20044;-71
2022/01/02 02:18:06;;;;;;;33.95;19.25;;;10.90;99.90;;;;;;5066614;28;20048;-71
2022/01/02 02:20:35;;;;;;;27.05;17.38;;;10.90;99.90;;;;;;5070132;28;20044;-71
2022/01/02 02:23:01;;;;;;;30.92;17.15;;;10.90;99.90;;;;;;5065795;28;20068;-71
2022/01/02 02:25:30;;;;;;;32.58;17.30;;;10.90;99.90;;;;;;5063359;28;20064;-71
2022/01/02 02:27:58;;;;;;;30.48;16.85;;;10.90;99.90;;;;;;5068347;28;20120;-71
2022/01/02 02:30:27;;;;;;;29.92;16.52;;;10.90;99.90;;;;;;5064313;28;20052;-71
2022/01/02 02:32:54;;;;;;;29.08;16.15;;;10.90;99.90;;;;;;5065430;28;20044;-71
2022/01/02 02:35:20;;;;;;;30.67;16.48;;;10.90;99.90;;;;;;5070179;28;20456;-71
2022/01/02 02:37:46;;;;;;;33.10;15.95;;;10.90;99.90;;;;;;5067014;28;20541;-70
2022/01/02 02:40:14;;;;;;;33.05;17.15;;;10.90;99.90;;;;;;5067820;28;20048;-71
2022/01/02 02:42:54;;;;;;;;;;;10.90;99.90;;;;;;5065427;28;20041;-71
2022/01/02 02:51:13;;;;;;;27.73;16.33;;;10.90;99.90;;;;;;5068556;28;20191;-71
2022/01/02 02:53:44;;;;;;;27.60;16.85;;;10.90;99.90;;;;;;5064966;28;20124;-71
2022/01/02 02:56:24;;;;;;;32.88;17.92;;;10.90;99.90;;;;;;5053254;28;20059;-71
2022/01/02 02:58:55;;;;;;;31.52;16.13;;;10.90;99.90;;;;;;5068131;28;20071;-71
2022/01/02 03:01:22;;;;;;;28.92;17.92;;;10.90;99.90;;;;;;5065063;28;20090;-71
2022/01/02 03:03:49;;;;;;;26.85;17.90;;;10.90;99.90;;;;;;5068452;28;20052;-71
2022/01/02 03:06:16;;;;;;;31.80;17.92;;;10.90;99.90;;;;;;5068778;28;20537;-71
2022/01/02 03:08:43;;;;;;;33.45;18.40;;;10.90;99.90;;;;;;5065428;28;20098;-71
2022/01/02 03:11:14;;;;;;;33.58;17.10;;;10.90;99.90;;;;;;5080488;28;20475;-71
2022/01/02 03:13:41;;;;;;;32.70;16.67;;;10.90;99.90;;;;;;5065966;28;20489;-71
2022/01/02 03:16:07;;;;;;;38.08;17.25;;;10.90;99.90;;;;;;5067113;28;20102;-72
2022/01/02 03:18:33;;;;;;;27.45;16.65;;;10.90;99.90;;;;;;5051698;28;20053;-71
2022/01/02 03:20:59;;;;;;;34.72;18.13;;;10.90;99.90;;;;;;5066251;28;20385;-72
2022/01/02 03:23:25;;;;;;;28.25;17.02;;;10.90;99.90;;;;;;5062871;28;20059;-72
2022/01/02 03:25:51;;;;;;;31.58;17.08;;;10.90;99.90;;;;;;5064006;28;20037;-72
2022/01/02 03:28:17;;;;;;;33.35;18.58;;;10.90;99.90;;;;;;5064577;28;20044;-72
2022/01/02 03:30:43;;;;;;;29.58;17.98;;;10.90;99.90;;;;;;5064394;28;20037;-72
2022/01/02 03:33:09;;;;;;;30.02;16.75;;;10.90;99.90;;;;;;5062422;28;20049;-71
2022/01/02 03:35:35;;;;;;;30.73;17.50;;;10.90;99.90;;;;;;5063214;28;20448;-71
2022/01/02 03:38:01;;;;;;;33.72;17.85;;;10.90;99.90;;;;;;5067826;28;20083;-71
2022/01/02 03:40:27;;;;;;;35.50;19.00;;;10.90;99.90;;;;;;5062968;28;20052;-72
2022/01/02 03:42:53;;;;;;;32.25;18.45;;;10.90;99.90;;;;;;5064591;28;20417;-72
2022/01/02 03:45:18;;;;;;;38.05;18.00;;;10.90;99.90;;;;;;5067485;28;20513;-72
2022/01/02 03:47:44;;;;;;;36.75;17.83;;;10.90;99.90;;;;;;5064773;28;20051;-72
2022/01/02 03:50:10;;;;;;;24.95;17.15;;;10.90;99.90;;;;;;5059191;28;20040;-72
2022/01/02 03:52:36;;;;;;;29.42;15.00;;;11.00;99.90;;;;;;5065373;28;20036;-72
2022/01/02 03:55:03;;;;;;;29.88;15.30;;;10.90;99.90;;;;;;5064746;28;20044;-72
2022/01/02 03:57:28;;;;;;;30.20;17.20;;;11.00;99.90;;;;;;5066624;28;20105;-72
2022/01/02 03:59:54;;;;;;;27.08;16.67;;;10.90;99.90;;;;;;5064697;28;20655;-71
2022/01/02 04:02:19;;;;;;;30.75;18.23;;;10.90;99.90;;;;;;5065815;28;20059;-71
2022/01/02 04:04:45;;;;;;;34.75;17.13;;;10.90;99.90;;;;;;5067996;28;20049;-71
2022/01/02 04:07:11;;;;;;;24.88;16.75;;;10.90;99.90;;;;;;5062144;28;20044;-71
2022/01/02 04:09:37;;;;;;;39.00;16.83;;;10.90;99.90;;;;;;5068051;28;20417;-71
2022/01/02 04:12:03;;;;;;;26.23;15.88;;;10.90;99.90;;;;;;5065282;28;20119;-71
2022/01/02 04:14:28;;;;;;;30.40;17.23;;;10.90;99.90;;;;;;5063461;28;20497;-71
2022/01/02 04:16:54;;;;;;;29.30;16.80;;;10.90;99.90;;;;;;5077350;28;20412;-71
2022/01/02 04:19:19;;;;;;;25.73;16.02;;;10.90;99.90;;;;;;5065309;28;20048;-71
2022/01/02 04:21:45;;;;;;;33.85;17.58;;;10.90;99.90;;;;;;5063108;28;20037;-71
2022/01/02 04:24:11;;;;;;;26.17;14.63;;;10.90;99.90;;;;;;5066464;28;20083;-71
2022/01/02 04:26:36;;;;;;;29.48;15.90;;;10.90;99.90;;;;;;5065015;28;20068;-71
2022/01/02 04:29:02;;;;;;;28.75;16.67;;;11.00;99.90;;;;;;5064985;28;20508;-71
2022/01/02 04:31:28;;;;;;;35.88;15.52;;;11.00;99.90;;;;;;5064566;28;20056;-71
2022/01/02 04:33:53;;;;;;;35.05;17.00;;;10.90;99.90;;;;;;5065704;28;20089;-71
2022/01/02 04:36:19;;;;;;;25.02;15.25;;;10.90;99.90;;;;;;5067167;28;20707;-71
2022/01/02 04:38:45;;;;;;;28.02;16.40;;;10.90;99.90;;;;;;5060613;28;20036;-71
2022/01/02 04:41:11;;;;;;;41.20;17.42;;;10.90;99.90;;;;;;5064310;28;20048;-71
2022/01/02 04:43:37;;;;;;;29.98;16.08;;;10.90;99.90;;;;;;5065853;28;20689;-71
2022/01/02 04:46:03;;;;;;;29.40;16.58;;;10.90;99.90;;;;;;5068374;28;20049;-71
2022/01/02 04:48:29;;;;;;;32.08;17.08;;;10.90;99.90;;;;;;5058190;28;20148;-71
2022/01/02 04:50:54;;;;;;;34.55;16.45;;;10.90;99.90;;;;;;5068670;28;20056;-71
2022/01/02 04:53:21;;;;;;;27.45;15.48;;;10.90;99.90;;;;;;5069005;28;20044;-71
2022/01/02 04:55:47;;;;;;;30.75;16.30;;;10.90;99.90;;;;;;5066648;28;20072;-71
2022/01/02 04:58:12;;;;;;;33.03;15.60;;;11.00;99.90;;;;;;5066046;28;20116;-71
2022/01/02 05:00:38;;;;;;;30.63;17.33;;;11.00;99.90;;;;;;5069809;28;20119;-71
2022/01/02 05:03:04;;;;;;;33.88;16.00;;;11.00;99.90;;;;;;5070515;28;20056;-71
2022/01/02 05:05:29;;;;;;;35.17;16.77;;;10.90;99.90;;;;;;5066068;28;20050;-71
2022/01/02 05:07:55;;;;;;;30.58;15.02;;;11.00;99.90;;;;;;5078176;28;20814;-71
2022/01/02 05:10:21;;;;;;;34.00;15.48;;;11.00;99.90;;;;;;5071763;28;20048;-72
2022/01/02 05:12:48;;;;;;;36.10;17.20;;;11.00;99.90;;;;;;5059104;28;20177;-71
2022/01/02 05:15:21;;;;;;;30.88;14.60;;;11.00;99.90;;;;;;5069452;28;20405;-71
2022/01/02 05:17:47;;;;;;;41.03;15.30;;;11.00;99.90;;;;;;5067148;28;20095;-71
2022/01/02 05:20:12;;;;;;;31.77;14.15;;;11.00;99.90;;;;;;5067990;28;20080;-71
2022/01/02 05:22:38;;;;;;;29.38;15.52;;;11.00;99.90;;;;;;5066764;28;20047;-71
2022/01/02 05:25:05;;;;;;;31.58;14.35;;;11.00;99.90;;;;;;5064394;28;20040;-71
2022/01/02 05:27:30;;;;;;;31.45;15.38;;;11.00;99.90;;;;;;5071408;28;20088;-71
2022/01/02 05:29:57;;;;;;;32.38;14.95;;;11.00;99.90;;;;;;5068234;28;20080;-71
2022/01/02 05:32:23;;;;;;;36.53;14.30;;;11.00;99.90;;;;;;5069165;28;20048;-71
2022/01/02 05:34:48;;;;;;;36.95;13.98;;;11.00;99.90;;;;;;5060209;28;20061;-71
2022/01/02 05:37:14;;;;;;;30.15;14.63;;;11.10;99.90;;;;;;5064918;28;20124;-71
2022/01/02 05:39:40;;;;;;;31.83;13.43;;;11.10;99.90;;;;;;5068063;28;22653;-71
2022/01/02 05:42:06;;;;;;;30.73;14.50;;;11.10;99.90;;;;;;5070102;28;20044;-71
2022/01/02 05:44:32;;;;;;;40.50;15.05;;;11.10;99.90;;;;;;5067950;28;20117;-71
2022/01/02 05:46:58;;;;;;;37.08;12.70;;;11.10;99.90;;;;;;5071325;28;20048;-71
2022/01/02 05:49:24;;;;;;;30.73;11.93;;;11.10;99.90;;;;;;5067949;28;20051;-71
2022/01/02 05:51:50;;;;;;;29.85;12.55;;;11.10;99.90;;;;;;5067274;28;20044;-71
2022/01/02 05:54:15;;;;;;;25.08;12.52;;;11.20;99.90;;;;;;5067397;28;20126;-71
2022/01/02 05:56:41;;;;;;;33.85;12.43;;;11.20;99.90;;;;;;5069337;28;20041;-71
2022/01/02 05:59:07;;;;;;;32.95;14.43;;;11.20;99.90;;;;;;5069244;28;20041;-71
2022/01/02 06:01:33;;;;;;;29.23;13.57;;;11.20;99.90;;;;;;5070102;28;20054;-71
2022/01/02 06:04:00;;;;;;;27.17;13.32;;;11.20;99.90;;;;;;5066261;28;20527;-71
2022/01/02 06:06:25;;;;;;;28.25;14.10;;;11.20;99.90;;;;;;5074900;28;20047;-71
2022/01/02 06:08:51;;;;;;;35.15;13.07;;;11.20;99.90;;;;;;5067886;28;20511;-71
2022/01/02 06:11:17;;;;;;;24.15;10.88;;;11.20;99.90;;;;;;5075770;28;20033;-71
2022/01/02 06:13:42;;;;;;;26.67;11.55;;;11.30;99.90;;;;;;5062180;28;20114;-71
2022/01/02 06:16:10;;;;;;;21.50;11.23;;;11.30;99.90;;;;;;5063402;28;20579;-71
2022/01/02 06:18:35;;;;;;;23.83;13.10;;;11.40;99.90;;;;;;5063533;28;20076;-71
2022/01/02 06:21:01;;;;;;;17.50;10.57;;;11.40;99.90;;;;;;5064758;28;20446;-71
2022/01/02 06:23:27;;;;;;;25.35;11.52;;;11.40;99.90;;;;;;5059764;28;20040;-71
2022/01/02 06:25:52;;;;;;;27.55;9.77;;;11.50;99.90;;;;;;5067864;28;20375;-71
2022/01/02 06:28:18;;;;;;;22.20;11.20;;;11.50;99.90;;;;;;5066057;28;20114;-71
2022/01/02 06:30:44;;;;;;;28.55;10.45;;;11.50;99.90;;;;;;5066222;28;20037;-71
2022/01/02 06:33:09;;;;;;;19.73;10.25;;;11.50;99.90;;;;;;5068247;28;20084;-71
2022/01/02 06:35:35;;;;;;;22.50;9.70;;;11.50;99.90;;;;;;5066072;28;20040;-71
2022/01/02 06:38:30;;;;;;;29.52;9.73;;;11.60;99.90;;;;;;5069750;28;20036;-71
2022/01/02 06:40:56;;;;;;;32.47;9.52;;;11.60;99.90;;;;;;5069311;28;20427;-71
2022/01/02 06:43:22;;;;;;;21.35;10.82;;;11.60;99.90;;;;;;5068722;28;20132;-72
2022/01/02 06:45:47;;;;;;;16.92;9.68;;;11.70;99.90;;;;;;5066619;28;20044;-72
2022/01/02 06:48:13;;;;;;;19.42;9.63;;;11.70;99.90;;;;;;5071306;28;20052;-72
2022/01/02 06:50:39;;;;;;;18.70;9.02;;;11.70;99.90;;;;;;5068218;28;20095;-71
2022/01/02 06:53:05;;;;;;;21.10;8.50;;;11.70;99.90;;;;;;5066709;28;20044;-72
2022/01/02 06:55:31;;;;;;;16.83;8.07;;;11.70;99.90;;;;;;5060231;28;20052;-72
2022/01/02 06:57:57;;;;;;;12.90;8.13;;;11.70;99.90;;;;;;5061564;28;20051;-71
2022/01/02 07:00:24;;;;;;;18.70;8.98;;;11.70;99.90;;;;;;5065438;28;20044;-72
2022/01/02 07:02:49;;;;;;;23.98;9.90;;;11.70;99.90;;;;;;5067757;28;20051;-72
2022/01/02 07:05:15;;;;;;;17.77;9.07;;;11.80;99.90;;;;;;5066565;28;20060;-72
2022/01/02 07:07:46;;;;;;;18.45;8.07;;;11.70;99.90;;;;;;5068580;28;20051;-72
2022/01/02 07:10:13;;;;;;;13.00;7.82;;;11.80;99.90;;;;;;5067061;28;20467;-72
2022/01/02 07:12:39;;;;;;;20.80;9.27;;;11.70;99.90;;;;;;5064051;28;20049;-72
2022/01/02 07:15:06;;;;;;;15.98;8.45;;;11.70;99.90;;;;;;5067891;28;20285;-72
2022/01/02 07:17:32;;;;;;;15.85;8.98;;;11.80;99.90;;;;;;5062221;28;20033;-72
2022/01/02 07:19:59;;;;;;;19.23;10.20;;;11.70;99.90;;;;;;5067272;28;20090;-72
2022/01/02 07:22:24;;;;;;;25.15;9.70;;;11.70;99.90;;;;;;5063417;28;20039;-71
2022/01/02 07:24:51;;;;;;;26.40;9.70;;;11.70;99.90;;;;;;5058359;28;20040;-71
2022/01/02 07:27:20;;;;;;;19.23;9.68;;;11.70;99.90;;;;;;5068325;28;20055;-71
2022/01/02 07:29:47;;;;;;;17.77;9.68;;;11.70;99.90;;;;;;5062523;28;20044;-71
2022/01/02 07:32:13;;;;;;;17.88;10.43;;;11.60;99.90;;;;;;5055538;28;20044;-72
2022/01/02 07:34:39;;;;;;;20.48;10.27;;;11.60;99.90;;;;;;5062252;28;20120;-71
2022/01/02 07:37:04;;;;;;;18.00;10.40;;;11.50;99.90;;;;;;5061007;28;20124;-71
2022/01/02 07:39:30;;;;;;;20.02;10.40;;;11.50;99.90;;;;;;5065054;28;20110;-72
2022/01/02 07:41:57;;;;;;;21.30;9.40;;;11.50;99.90;;;;;;5066813;28;20094;-71
2022/01/02 07:44:22;;;;;;;18.23;9.95;;;11.50;99.90;;;;;;5061698;28;20437;-71
2022/01/02 07:46:48;;;;;;;20.30;9.48;;;11.40;99.90;;;;;;5039346;28;20056;-71
2022/01/02 07:49:13;;;;;;;20.35;10.48;;;11.50;99.90;;;;;;5065378;28;20049;-71
2022/01/02 07:51:39;;;;;;;15.50;9.38;;;11.40;99.90;;;;;;5041222;28;20083;-71
2022/01/02 07:54:05;;;;;;;25.83;11.80;;;11.40;99.90;;;;;;5059532;28;20135;-71
2022/01/02 07:56:30;;;;;;;15.85;10.18;;;11.40;99.90;;;;;;5064293;28;20056;-72
2022/01/02 07:58:58;;;;;;;14.90;9.77;;;11.50;99.90;;;;;;5058890;28;20567;-71
2022/01/02 08:01:24;;;;;;;18.65;10.77;;;11.40;99.90;;;;;;5059974;28;20049;-71
2022/01/02 08:03:50;;;;;;;13.80;9.98;;;11.50;99.90;;;;;;5063566;28;20052;-71
2022/01/02 08:06:15;;;;;;;30.40;10.35;;;11.40;99.90;;;;;;5069147;28;20711;-71
2022/01/02 08:08:41;;;;;;;14.68;10.57;;;11.50;99.90;;;;;;5063587;28;20052;-71
2022/01/02 08:11:06;;;;;;;20.30;11.23;;;11.50;99.90;;;;;;5063643;28;20048;-71
2022/01/02 08:13:32;;;;;;;30.27;13.20;;;11.50;99.90;;;;;;5065907;28;20052;-71
2022/01/02 08:15:58;;;;;;;17.73;11.07;;;11.50;99.90;;;;;;5064689;28;20481;-71
2022/01/02 08:18:23;;;;;;;21.23;12.90;;;11.50;99.90;;;;;;5067446;28;20156;-71
2022/01/02 08:20:50;;;;;;;20.67;11.82;;;11.40;99.90;;;;;;5068394;28;20072;-71
2022/01/02 08:23:16;;;;;;;20.35;11.95;;;11.40;99.90;;;;;;5068382;28;20048;-72
2022/01/02 08:25:42;;;;;;;21.15;11.05;;;11.40;99.90;;;;;;5064364;28;20049;-71
2022/01/02 08:28:07;;;;;;;17.45;11.65;;;11.40;99.90;;;;;;5071604;28;20054;-71
2022/01/02 08:30:33;;;;;;;22.55;11.02;;;11.30;99.90;;;;;;5068197;28;20045;-71
2022/01/02 08:32:59;;;;;;;16.98;11.07;;;11.40;99.90;;;;;;5066142;28;20052;-72
2022/01/02 08:35:25;;;;;;;18.08;12.13;;;11.30;99.90;;;;;;5072028;28;20404;-71
2022/01/02 08:37:51;;;;;;;32.45;11.40;;;11.30;99.90;;;;;;5062298;28;20462;-72
2022/01/02 08:40:17;;;;;;;19.63;11.55;;;11.30;99.90;;;;;;5070734;28;20571;-72
2022/01/02 08:42:42;;;;;;;22.77;10.35;;;11.30;99.90;;;;;;5069558;28;20068;-72
2022/01/02 08:45:08;;;;;;;19.25;10.52;;;11.30;99.90;;;;;;5069981;28;20048;-72
2022/01/02 08:47:35;;;;;;;16.52;9.93;;;11.30;99.90;;;;;;5070612;28;20386;-72
2022/01/02 08:50:00;;;;;;;33.78;11.57;;;11.40;99.90;;;;;;5067391;28;20044;-72
2022/01/02 08:52:26;;;;;;;19.63;11.13;;;11.40;99.90;;;;;;5067775;28;20047;-72
2022/01/02 08:54:52;;;;;;;14.43;9.95;;;11.30;99.90;;;;;;5064979;28;20043;-72
2022/01/02 08:57:17;;;;;;;36.95;11.70;;;11.40;99.90;;;;;;5067342;28;20036;-72
2022/01/02 08:59:43;;;;;;;22.33;10.43;;;11.40;99.90;;;;;;5069635;28;20052;-72
2022/01/02 09:02:11;;;;;;;18.25;10.48;;;11.30;99.90;;;;;;5072177;28;20472;-71
2022/01/02 09:04:37;;;;;;;14.85;9.68;;;11.30;99.90;;;;;;5061694;28;20055;-71
2022/01/02 09:07:03;;;;;;;19.88;10.82;;;11.30;99.90;;;;;;5072922;28;20052;-71
2022/01/02 09:09:29;;;;;;;22.77;10.27;;;11.30;99.90;;;;;;5069139;28;20082;-71
2022/01/02 09:11:55;;;;;;;15.98;10.65;;;11.40;99.90;;;;;;5066846;28;20515;-72
2022/01/02 09:14:20;;;;;;;17.85;9.82;;;11.40;99.90;;;;;;5071409;28;20037;-71
2022/01/02 09:16:46;;;;;;;17.40;10.73;;;11.40;99.90;;;;;;5066470;28;20098;-72
2022/01/02 09:19:13;;;;;;;19.55;9.80;;;11.40;99.90;;;;;;5071150;28;20044;-71
2022/01/02 09:21:38;;;;;;;21.25;10.55;;;11.40;99.90;;;;;;5067236;28;20046;-71
2022/01/02 09:24:05;;;;;;;15.95;9.68;;;11.40;99.90;;;;;;5065172;28;20105;-71
2022/01/02 09:26:31;;;;;;;17.52;10.32;;;11.40;99.90;;;;;;5065785;28;20824;-71
2022/01/02 09:28:57;;;;;;;17.48;11.07;;;11.50;99.90;;;;;;5068929;28;20127;-71
2022/01/02 09:31:23;;;;;;;21.75;11.13;;;11.50;99.90;;;;;;5068053;28;20062;-71
2022/01/02 09:33:49;;;;;;;13.10;9.70;;;11.50;99.90;;;;;;5065095;28;20248;-71
2022/01/02 09:36:15;;;;;;;18.45;10.05;;;11.50;99.90;;;;;;5067960;28;20532;-71
2022/01/02 09:38:42;;;;;;;18.15;10.95;;;11.50;99.90;;;;;;5069621;28;20041;-71
2022/01/02 09:41:09;;;;;;;16.67;10.00;;;11.50;99.90;;;;;;5069562;28;20402;-71
2022/01/02 09:43:35;;;;;;;18.35;10.73;;;11.60;99.90;;;;;;5067585;28;20516;-71
2022/01/02 09:46:03;;;;;;;21.10;10.40;;;11.60;99.90;;;;;;5067585;28;20397;-71
2022/01/02 09:48:29;;;;;;;15.98;10.63;;;11.60;99.90;;;;;;5067935;28;20052;-71
2022/01/02 09:50:56;;;;;;;20.67;9.48;;;11.70;99.90;;;;;;5067957;28;20040;-71
2022/01/02 09:53:23;;;;;;;17.33;10.05;;;11.70;99.90;;;;;;5072786;28;20048;-72
2022/01/02 09:55:49;;;;;;;19.33;10.30;;;11.70;99.90;;;;;;5066476;28;20064;-72
2022/01/02 09:58:15;;;;;;;23.83;11.93;;;11.80;99.90;;;;;;5066604;28;20413;-72
2022/01/02 10:00:46;;;;;;;17.80;10.35;;;11.80;99.90;;;;;;5073235;28;20040;-72
2022/01/02 10:03:12;;;;;;;27.52;11.25;;;11.80;99.90;;;;;;5072484;28;20053;-71
2022/01/02 10:05:52;;;;;;;18.10;10.88;;;11.80;99.90;;;;;;5064085;28;20047;-72
2022/01/02 10:08:25;;;;;;;16.33;11.63;;;11.90;99.90;;;;;;5063879;28;20052;-72
2022/01/02 10:11:44;;;;;;;16.55;10.18;;;11.90;99.90;;;;;;5060973;28;20055;-72
2022/01/02 10:14:05;;;;;;;20.85;12.60;;;12.00;99.90;;;;;;5069579;28;20059;-72
2022/01/02 10:16:36;;;;;;;23.10;12.00;;;12.00;99.90;;;;;;5062286;28;20086;-71
2022/01/02 10:19:26;;;;;;;22.88;12.57;;;11.90;99.90;;;;;;5061306;28;20051;-71
2022/01/02 10:22:03;;;;;;;17.48;12.48;;;11.90;99.90;;;;;;5061226;28;20045;-71
2022/01/02 10:24:37;;;;;;;17.60;12.32;;;11.90;99.90;;;;;;5065185;28;20040;-71
2022/01/02 10:27:19;;;;;;;17.52;11.13;;;11.80;99.90;;;;;;5065709;28;20044;-72
2022/01/02 10:29:50;;;;;;;18.23;12.20;;;11.90;99.90;;;;;;5062749;28;20044;-71
2022/01/02 10:32:26;;;;;;;16.27;12.50;;;11.90;99.90;;;;;;5065631;28;20049;-71
2022/01/02 10:35:08;;;;;;;19.98;11.70;;;11.90;99.90;;;;;;5064495;28;20067;-71
2022/01/02 10:37:34;;;;;;;14.88;11.27;;;11.90;99.90;;;;;;5065776;28;20040;-71
2022/01/02 10:39:59;;;;;;;22.60;12.38;;;11.80;99.90;;;;;;5067712;28;20106;-71
2022/01/02 10:42:28;;;;;;;23.85;13.48;;;11.80;99.90;;;;;;5065364;28;20043;-71
2022/01/02 10:44:54;;;;;;;17.45;13.32;;;11.80;99.90;;;;;;5069079;28;20044;-71
2022/01/02 10:47:26;;;;;;;17.45;12.55;;;11.80;99.90;;;;;;5067375;28;20098;-71
2022/01/02 10:49:59;;;;;;;18.75;12.52;;;11.80;99.90;;;;;;5066363;28;20043;-71
2022/01/02 10:52:45;;;;;;;23.20;14.05;;;11.80;99.90;;;;;;5066635;28;20047;-72
2022/01/02 10:55:25;;;;;;;17.70;13.25;;;11.80;99.90;;;;;;5066825;28;20052;-71
2022/01/02 10:57:53;;;;;;;25.08;14.15;;;11.90;99.90;;;;;;5067481;28;20396;-71
2022/01/02 11:00:25;;;;;;;16.75;13.45;;;11.90;99.90;;;;;;5059569;28;20106;-72
2022/01/02 11:02:51;;;;;;;28.20;13.77;;;12.00;99.90;;;;;;5065157;28;20472;-71
2022/01/02 11:05:19;;;;;;;18.33;13.68;;;12.00;99.90;;;;;;5066457;28;20066;-71
2022/01/02 11:07:49;;;;;;;23.30;14.63;;;12.10;99.90;;;;;;5061476;28;20032;-71
2022/01/02 11:10:18;;;;;;;14.23;12.80;;;12.10;99.90;;;;;;5067166;28;20430;-71
2022/01/02 11:12:44;;;;;;;;;;;12.20;99.90;;;;;;5066981;28;20047;-71
2022/01/02 11:15:12;;;;;;;18.73;13.35;;;12.20;99.90;;;;;;5068770;28;20336;-71
2022/01/02 11:17:38;;;;;;;21.52;15.15;;;12.20;99.90;;;;;;5048731;28;20037;-71
2022/01/02 11:20:11;;;;;;;21.50;14.48;;;12.20;99.90;;;;;;5065931;28;20045;-71
2022/01/02 11:22:49;;;;;;;23.67;13.05;;;12.20;99.90;;;;;;5071623;28;20048;-71
2022/01/02 11:25:33;;;;;;;20.23;14.27;;;12.20;99.90;;;;;;5062247;28;20049;-71
2022/01/02 11:28:03;;;;;;;21.17;13.43;;;12.20;99.90;;;;;;5058203;28;20071;-71
2022/01/02 11:30:35;;;;;;;16.17;12.98;;;12.10;99.90;;;;;;5068062;28;20056;-71
2022/01/02 11:33:15;;;;;;;18.92;13.50;;;12.10;99.90;;;;;;5066004;28;20045;-71
2022/01/02 11:35:49;;;;;;;20.98;14.73;;;12.10;99.90;;;;;;5068026;28;20040;-71
2022/01/02 11:38:19;;;;;;;21.20;14.30;;;12.00;99.90;;;;;;5066412;28;20580;-71
2022/01/02 11:40:48;;;;;;;23.55;15.20;;;12.00;99.90;;;;;;5064808;28;20501;-71
2022/01/02 11:43:35;;;;;;;25.73;15.00;;;12.00;99.90;;;;;;5065266;28;20041;-71
2022/01/02 11:46:25;;;;;;;21.92;15.52;;;12.00;99.90;;;;;;5065925;28;20047;-71
2022/01/02 11:49:17;;;;;;;20.90;14.07;;;11.90;99.90;;;;;;5054821;28;20041;-71
2022/01/02 11:51:51;;;;;;;18.70;14.85;;;11.90;99.90;;;;;;5065842;28;20449;-71
2022/01/02 11:54:29;;;;;;;17.33;14.35;;;11.90;99.90;;;;;;5067642;28;20056;-71
2022/01/02 11:57:01;;;;;;;29.60;15.98;;;11.90;99.90;;;;;;5065120;28;20052;-71
2022/01/02 11:59:39;;;;;;;21.52;15.57;;;11.90;99.90;;;;;;5074795;28;20036;-71
2022/01/02 12:02:27;;;;;;;25.48;15.93;;;11.90;99.90;;;;;;5067092;28;20044;-71
2022/01/02 12:05:03;;;;;;;25.25;15.02;;;11.90;99.90;;;;;;5067437;28;20048;-71
2022/01/02 12:07:53;;;;;;;15.70;14.02;;;11.90;99.90;;;;;;5063565;28;20044;-71
2022/01/02 12:10:23;;;;;;;23.25;15.13;;;11.90;99.90;;;;;;5063013;28;20146;-72
2022/01/02 12:13:10;;;;;;;18.80;14.45;;;11.80;99.90;;;;;;5062261;28;20505;-71
2022/01/02 12:15:39;;;;;;;21.38;15.60;;;11.90;99.90;;;;;;5055958;28;20044;-71
2022/01/02 12:18:16;;;;;;;31.60;15.35;;;11.90;99.90;;;;;;5061388;28;20060;-71
2022/01/02 12:21:08;;;;;;;22.50;14.38;;;11.90;99.90;;;;;;5066215;28;20052;-71
2022/01/02 12:23:33;;;;;;;16.52;12.75;;;11.90;99.90;;;;;;5053565;28;20048;-71
2022/01/02 12:26:07;;;;;;;19.77;11.73;;;11.90;99.90;;;;;;5063083;28;20563;-71
2022/01/02 12:28:41;;;;;;;14.32;10.85;;;11.90;99.90;;;;;;5059150;28;20436;-71
2022/01/02 12:31:10;;;;;;;23.42;10.52;;;11.90;99.90;;;;;;5065526;28;20045;-71
2022/01/02 12:33:36;;;;;;;17.38;10.68;;;11.90;99.90;;;;;;5065120;28;20059;-71
2022/01/02 12:36:17;;;;;;;22.90;10.07;;;11.90;99.90;;;;;;5060643;28;20489;-71
2022/01/02 12:38:55;;;;;;;19.88;10.40;;;11.90;99.90;;;;;;5067231;28;20062;-71
2022/01/02 12:41:30;;;;;;;18.15;8.38;;;11.90;99.90;;;;;;5059197;28;20045;-70